Time;durP1;ratioP1;P1;durP2;ratioP2;P2;SDS_P1;SDS_P2;PMS_P1;PMS_P2;Temp;Humidity;BMP_temperature;BMP_pressure;BME280_temperature;BME280_humidity;BME280_pressure;Samples;Min_cycle;Max_cycle;Signal;HPM_P1;HPM_P2
2022/09/14 00:01:19;;;;;;;17.37;10.38;;;;;;;17.81;99.58;99352.20;2739515;85;21087;-90
2022/09/14 00:05:20;;;;;;;13.48;10.58;;;;;;;17.74;100.00;99351.33;2732226;85;21091;-88
2022/09/14 00:09:24;;;;;;;16.17;11.12;;;;;;;17.78;100.00;99362.51;2729900;86;21721;-90
2022/09/14 00:13:26;;;;;;;11.38;9.15;;;;;;;17.87;100.00;99343.02;2715048;86;21101;-90
2022/09/14 00:17:27;;;;;;;11.35;9.33;;;;;;;17.92;100.00;99350.01;2680498;86;21479;-90
2022/09/14 00:21:28;;;;;;;10.23;7.85;;;;;;;17.91;100.00;99361.80;2776904;84;21018;-89
2022/09/14 00:25:31;;;;;;;11.73;7.92;;;;;;;17.95;100.00;99361.72;2795705;84;21062;-89
2022/09/14 00:29:33;;;;;;;12.30;9.05;;;;;;;17.84;100.00;99348.30;2790304;84;21092;-90
2022/09/14 00:33:35;;;;;;;8.98;8.08;;;;;;;17.78;100.00;99350.41;2740233;85;21037;-90
2022/09/14 00:37:38;;;;;;;10.53;9.43;;;;;;;17.51;100.00;99348.88;2715161;86;21090;-89
2022/09/14 00:41:43;;;;;;;9.15;7.83;;;;;;;17.34;100.00;99345.64;2735806;85;21597;-87
2022/09/14 00:45:44;;;;;;;9.63;8.63;;;;;;;17.24;100.00;99345.43;2742004;85;21069;-88
2022/09/14 00:49:45;;;;;;;10.63;8.95;;;;;;;17.19;100.00;99353.25;2733218;86;21061;-89
2022/09/14 00:53:47;;;;;;;10.50;8.90;;;;;;;17.36;100.00;99358.36;2703170;86;21038;-89
2022/09/14 00:57:52;;;;;;;11.00;6.95;;;;;;;17.48;100.00;99355.45;2680764;87;21090;-88
2022/09/14 01:01:54;;;;;;;8.77;7.00;;;;;;;17.58;100.00;99353.78;2690655;86;21046;-88
2022/09/14 01:06:38;;;;;;;11.05;8.03;;;;;;;17.54;100.00;99356.05;2699403;86;21605;-89
2022/09/14 01:11:03;;;;;;;8.78;7.33;;;;;;;17.66;100.00;99350.11;2666779;86;21113;-88
2022/09/14 01:15:19;;;;;;;8.18;7.20;;;;;;;17.76;100.00;99349.28;2696285;86;21753;-89
2022/09/14 01:19:28;;;;;;;9.15;6.83;;;;;;;17.85;100.00;99348.08;2709570;86;21021;-90
2022/09/14 01:23:50;;;;;;;11.45;7.17;;;;;;;17.88;100.00;99351.41;2702782;85;21053;-88
2022/09/14 01:27:54;;;;;;;9.05;6.58;;;;;;;17.77;100.00;99337.98;2703443;85;21049;-90
2022/09/14 01:32:28;;;;;;;10.48;7.42;;;;;;;17.80;100.00;99330.36;2728971;85;21066;-88
2022/09/14 01:36:33;;;;;;;9.35;7.00;;;;;;;17.87;100.00;99329.07;2745790;85;21089;-90
2022/09/14 01:40:42;;;;;;;11.20;6.58;;;;;;;17.92;100.00;99333.87;2729204;86;21110;-89
2022/09/14 01:44:48;;;;;;;9.03;6.45;;;;;;;17.91;100.00;99327.64;2704945;86;21114;-90
2022/09/14 01:49:03;;;;;;;12.20;7.80;;;;;;;17.83;100.00;99324.59;2714501;86;21081;-90
2022/09/14 01:53:28;;;;;;;10.10;8.13;;;;;;;17.67;100.00;99326.23;2803687;83;21068;-89
2022/09/14 01:57:34;;;;;;;11.60;9.45;;;;;;;17.45;100.00;99316.87;2798381;83;21106;-88
2022/09/14 02:01:53;;;;;;;7.05;6.35;;;;;;;17.28;100.00;99322.52;2729338;84;20995;-90
2022/09/14 02:06:13;;;;;;;11.22;9.40;;;;;;;17.17;100.00;99316.34;2763506;84;21019;-88
2022/09/14 02:10:16;;;;;;;11.53;7.62;;;;;;;17.23;100.00;99310.70;2738984;84;21069;-89
2022/09/14 02:14:17;;;;;;;10.90;9.33;;;;;;;17.32;100.00;99314.91;2724693;84;21058;-89
2022/09/14 02:18:19;;;;;;;7.70;6.92;;;;;;;17.34;100.00;99310.17;2760077;84;21675;-90
2022/09/14 02:22:21;;;;;;;10.18;8.95;;;;;;;17.30;100.00;99310.24;2764920;84;21030;-87
2022/09/14 02:26:24;;;;;;;10.90;7.85;;;;;;;17.29;100.00;99309.92;2755330;84;21522;-89
2022/09/14 02:30:27;;;;;;;11.93;7.83;;;;;;;17.24;100.00;99305.66;2739437;84;21069;-89
2022/09/14 02:34:52;;;;;;;12.70;8.68;;;;;;;17.32;100.00;99303.34;2713690;85;21069;-87
2022/09/14 02:39:01;;;;;;;8.78;7.03;;;;;;;17.31;100.00;99306.53;2759500;84;21121;-89
2022/09/14 02:43:31;;;;;;;16.62;9.13;;;;;;;17.26;100.00;99304.94;2678083;87;21013;-88
2022/09/14 02:47:54;;;;;;;13.60;9.13;;;;;;;17.31;100.00;99300.34;2737247;85;21069;-89
2022/09/14 02:52:08;;;;;;;11.93;7.92;;;;;;;17.39;100.00;99297.50;2771485;83;21065;-90
2022/09/14 02:56:11;;;;;;;13.40;8.15;;;;;;;17.38;100.00;99294.49;2669860;87;21129;-90
2022/09/14 03:00:13;;;;;;;12.68;8.68;;;;;;;17.31;100.00;99296.30;2629443;87;21113;-89
2022/09/14 03:04:15;;;;;;;10.90;8.95;;;;;;;17.34;100.00;99292.70;2676898;87;21117;-90
2022/09/14 03:08:16;;;;;;;14.83;10.28;;;;;;;17.41;100.00;99289.56;2673644;87;21113;-90
2022/09/14 03:12:17;;;;;;;12.88;10.10;;;;;;;17.47;100.00;99291.14;2645478;87;21025;-90
2022/09/14 03:16:19;;;;;;;14.25;8.20;;;;;;;17.51;100.00;99291.06;2673050;87;21065;-89
2022/09/14 03:20:28;;;;;;;10.40;7.65;;;;;;;17.51;100.00;99283.84;2672138;87;21771;-90
2022/09/14 03:24:29;;;;;;;9.50;7.50;;;;;;;17.47;100.00;99277.70;2674143;87;21104;-89
2022/09/14 03:28:30;;;;;;;15.85;9.03;;;;;;;17.45;100.00;99275.20;2675929;87;21092;-89
2022/09/14 03:32:32;;;;;;;15.35;8.30;;;;;;;17.45;100.00;99272.52;2725136;83;21002;-87
2022/09/14 03:36:33;;;;;;;12.28;8.88;;;;;;;17.27;100.00;99262.26;2742681;84;21080;-88
2022/09/14 03:40:35;;;;;;;12.93;8.60;;;;;;;17.30;100.00;99267.77;2789147;83;21056;-89
2022/09/14 03:44:36;;;;;;;11.97;10.20;;;;;;;17.32;100.00;99271.91;2787702;83;21798;-90
2022/09/14 03:48:38;;;;;;;13.22;9.30;;;;;;;17.36;100.00;99270.48;2749005;84;21108;-91
2022/09/14 03:52:39;;;;;;;15.48;9.68;;;;;;;17.44;100.00;99266.00;2774732;84;21072;-89
2022/09/14 03:56:41;;;;;;;11.97;9.43;;;;;;;17.48;100.00;99262.70;2782078;84;21026;-89
2022/09/14 04:00:42;;;;;;;11.33;10.15;;;;;;;17.51;100.00;99263.69;2731623;86;21691;-87
2022/09/14 04:04:43;;;;;;;10.43;8.78;;;;;;;17.48;100.00;99260.02;2732506;86;21073;-89
2022/09/14 04:08:46;;;;;;;13.85;8.43;;;;;;;17.49;100.00;99256.83;2687908;88;21064;-90
2022/09/14 04:12:47;;;;;;;9.98;8.98;;;;;;;17.48;100.00;99263.23;2727899;85;21081;-89
2022/09/14 04:16:49;;;;;;;14.23;9.13;;;;;;;17.44;100.00;99262.79;2714648;87;21073;-89
2022/09/14 04:21:01;;;;;;;8.73;7.90;;;;;;;17.43;100.00;99263.81;2724525;86;21108;-90
2022/09/14 04:25:02;;;;;;;15.40;9.78;;;;;;;17.23;100.00;99268.53;2729499;86;21089;-90
2022/09/14 04:29:04;;;;;;;11.18;9.55;;;;;;;16.97;100.00;99266.41;2727656;85;21081;-91
2022/09/14 04:33:05;;;;;;;12.82;10.00;;;;;;;16.86;100.00;99263.73;2726573;85;21569;-90
2022/09/14 04:37:07;;;;;;;10.53;9.05;;;;;;;16.89;100.00;99271.92;2688895;85;21565;-90
2022/09/14 04:41:15;;;;;;;11.08;8.65;;;;;;;16.91;100.00;99277.93;2691348;87;21074;-88
2022/09/14 04:45:16;;;;;;;11.18;7.78;;;;;;;16.89;100.00;99272.73;2691420;87;21075;-90
2022/09/14 04:49:20;;;;;;;12.93;7.67;;;;;;;16.88;100.00;99288.53;2693486;88;22429;-91
2022/09/14 04:53:21;;;;;;;11.22;9.00;;;;;;;16.93;100.00;99287.47;2729830;84;21096;-88
2022/09/14 04:57:22;;;;;;;13.68;9.05;;;;;;;17.01;100.00;99289.73;2736051;85;21648;-88
2022/09/14 05:01:28;;;;;;;10.38;9.08;;;;;;;16.98;100.00;99283.72;2738883;85;21069;-91
2022/09/14 05:05:32;;;;;;;12.73;9.93;;;;;;;17.02;100.00;99288.20;2736662;85;21148;-89
2022/09/14 05:09:33;;;;;;;9.03;7.53;;;;;;;17.15;100.00;99283.45;2736102;84;21089;-88
2022/09/14 05:13:35;;;;;;;9.15;7.30;;;;;;;17.25;100.00;99290.66;2727324;85;21339;-90
2022/09/14 05:17:36;;;;;;;10.30;8.00;;;;;;;17.31;100.00;99286.37;2741093;85;21084;-91
2022/09/14 05:21:37;;;;;;;14.18;8.78;;;;;;;17.34;100.00;99283.81;2756123;85;21077;-90
2022/09/14 05:25:39;;;;;;;10.98;9.30;;;;;;;17.29;100.00;99295.14;2672513;84;21092;-90
2022/09/14 05:29:40;;;;;;;12.25;9.48;;;;;;;17.28;100.00;99295.64;2738251;85;21057;-90
2022/09/14 05:33:41;;;;;;;10.78;8.28;;;;;;;17.41;100.00;99287.38;2739990;85;21664;-90
2022/09/14 05:37:43;;;;;;;13.55;9.20;;;;;;;17.50;100.00;99282.69;2742064;85;21076;-89
2022/09/14 05:41:44;;;;;;;12.37;9.28;;;;;;;17.54;100.00;99276.73;2737954;85;21667;-89
2022/09/14 05:45:45;;;;;;;12.95;9.98;;;;;;;17.46;100.00;99286.80;2663826;85;21041;-90
2022/09/14 05:49:47;;;;;;;15.20;11.78;;;;;;;17.32;100.00;99277.81;2739942;86;21061;-90
2022/09/14 05:53:55;;;;;;;16.73;10.38;;;;;;;17.38;100.00;99275.14;2769588;84;21350;-89
2022/09/14 05:57:56;;;;;;;14.00;10.18;;;;;;;17.44;100.00;99275.41;2777266;84;21038;-89
2022/09/14 06:01:58;;;;;;;15.72;10.35;;;;;;;17.44;100.00;99273.54;2775344;84;21042;-90
2022/09/14 06:05:59;;;;;;;23.85;12.10;;;;;;;17.51;100.00;99274.44;2767891;84;20999;-89
2022/09/14 06:10:00;;;;;;;14.38;12.15;;;;;;;17.59;100.00;99276.15;2770517;83;20999;-90
2022/09/14 06:14:04;;;;;;;18.37;13.18;;;;;;;17.73;100.00;99276.21;2780647;84;21502;-89
2022/09/14 06:18:05;;;;;;;17.50;12.35;;;;;;;17.89;100.00;99277.77;2776235;84;21934;-91
2022/09/14 06:22:07;;;;;;;16.10;12.10;;;;;;;18.12;100.00;99278.33;2782412;84;21051;-90
2022/09/14 06:26:09;;;;;;;15.35;13.35;;;;;;;18.36;100.00;99265.38;2756726;85;21109;-89
2022/09/14 06:30:11;;;;;;;14.23;12.73;;;;;;;18.58;100.00;99271.96;2756172;85;21127;-93
2022/09/14 06:34:13;;;;;;;14.45;12.07;;;;;;;18.78;100.00;99268.48;2787241;83;21108;-91
2022/09/14 06:38:15;;;;;;;12.60;10.48;;;;;;;18.87;100.00;99266.42;2786248;84;21514;-93
2022/09/14 06:42:19;;;;;;;11.00;8.98;;;;;;;18.95;100.00;99277.83;2684050;87;21439;-91
2022/09/14 06:46:30;;;;;;;10.93;8.80;;;;;;;19.04;100.00;99269.06;2702420;86;21062;-92
2022/09/14 06:50:35;;;;;;;15.32;9.80;;;;;;;19.08;100.00;99272.19;2700900;87;21074;-91
2022/09/14 06:54:34;;;;;;;9.10;7.90;;;;;;;19.13;100.00;99271.03;2700838;86;21126;-90
2022/09/14 06:58:36;;;;;;;11.05;9.00;;;;;;;19.23;100.00;99273.31;2691196;86;21586;-92
2022/09/14 07:02:37;;;;;;;10.60;8.70;;;;;;;19.33;100.00;99283.16;2778416;84;21018;-91
2022/09/14 07:06:46;;;;;;;12.03;9.90;;;;;;;19.25;100.00;99269.36;2784659;84;21011;-93
2022/09/14 07:10:56;;;;;;;10.90;8.80;;;;;;;19.13;100.00;99264.30;2786175;83;21029;-92
2022/09/14 07:14:58;;;;;;;13.22;10.00;;;;;;;19.16;100.00;99258.48;2784690;84;21041;-91
2022/09/14 07:19:03;;;;;;;9.95;7.90;;;;;;;19.30;100.00;99265.23;2766904;84;21066;-91
2022/09/14 07:23:05;;;;;;;10.65;8.45;;;;;;;19.29;100.00;99262.23;2770607;85;21593;-91
2022/09/14 07:27:06;;;;;;;10.58;9.10;;;;;;;19.24;100.00;99260.16;2779221;85;21070;-92
2022/09/14 07:31:37;;;;;;;13.20;9.38;;;;;;;19.36;100.00;99259.00;2764012;85;21022;-92
2022/09/14 07:35:38;;;;;;;10.03;6.80;;;;;;;19.55;100.00;99258.15;2784044;84;21070;-88
2022/09/14 07:39:39;;;;;;;10.28;7.90;;;;;;;19.76;97.90;99254.07;2733526;86;21628;-91
2022/09/14 07:43:41;;;;;;;10.58;7.70;;;;;;;19.91;95.21;99260.56;2695445;87;21031;-90
2022/09/14 07:47:42;;;;;;;8.20;5.62;;;;;;;19.93;95.46;99266.60;2697019;86;21020;-92
2022/09/14 07:51:44;;;;;;;6.20;4.92;;;;;;;19.92;92.67;99260.89;2691933;86;21487;-91
2022/09/14 07:55:46;;;;;;;5.95;4.45;;;;;;;19.93;88.16;99262.55;2693269;86;21624;-88
2022/09/14 07:59:47;;;;;;;6.47;5.03;;;;;;;19.83;88.41;99259.73;2724173;85;21061;-92
2022/09/14 08:03:49;;;;;;;7.97;5.05;;;;;;;19.65;86.14;99259.56;2717508;86;21766;-89
2022/09/14 08:07:55;;;;;;;6.53;5.10;;;;;;;19.62;89.54;99266.23;2724415;86;21061;-89
2022/09/14 08:11:56;;;;;;;5.95;4.75;;;;;;;19.54;82.74;99263.73;2721273;85;21062;-90
2022/09/14 08:15:59;;;;;;;5.62;4.80;;;;;;;19.40;83.18;99257.54;2700529;88;21038;-92
2022/09/14 08:20:01;;;;;;;7.03;5.12;;;;;;;19.48;88.75;99253.30;2723594;85;21106;-92
2022/09/14 08:24:03;;;;;;;5.25;4.75;;;;;;;19.62;86.24;99255.95;2684975;85;21704;-92
2022/09/14 08:28:05;;;;;;;14.00;5.28;;;;;;;19.72;85.91;99250.95;2728312;85;21016;-92
2022/09/14 08:32:07;;;;;;;9.25;5.65;;;;;;;19.77;86.70;99255.19;2727641;85;21055;-89
2022/09/14 08:36:11;;;;;;;7.55;5.10;;;;;;;19.80;85.55;99249.37;2727994;85;21098;-91
2022/09/14 08:40:13;;;;;;;8.28;4.80;;;;;;;19.80;86.52;99248.55;2701392;86;21086;-92
2022/09/14 08:44:42;;;;;;;4.70;4.25;;;;;;;19.73;85.48;99252.62;2714489;86;21066;-89
2022/09/14 08:48:47;;;;;;;24.72;7.37;;;;;;;19.79;85.09;99249.06;2775683;83;21010;-94
2022/09/14 08:52:52;;;;;;;8.10;5.10;;;;;;;19.96;86.58;99245.42;2790547;81;21104;-93
2022/09/14 08:57:05;;;;;;;7.72;5.72;;;;;;;20.11;85.36;99241.61;2776428;83;21054;-96
2022/09/14 09:01:24;;;;;;;9.43;4.05;;;;;;;20.25;85.16;99244.56;2792437;83;21050;-95
2022/09/14 09:05:54;;;;;;;12.43;6.42;;;;;;;20.43;85.35;99250.28;2797488;83;21614;-93
2022/09/14 09:09:57;;;;;;;6.42;4.20;;;;;;;20.61;83.72;99242.28;2774684;84;21045;-92
2022/09/14 09:13:59;;;;;;;9.98;4.95;;;;;;;20.80;82.46;99236.99;2776175;83;21576;-91
2022/09/14 09:18:12;;;;;;;6.80;4.15;;;;;;;20.93;83.94;99240.12;2770832;84;21034;-91
2022/09/14 09:22:18;;;;;;;5.70;4.55;;;;;;;21.02;80.21;99236.63;2771934;84;21129;-88
2022/09/14 09:26:28;;;;;;;;;;;;;;;21.01;79.67;99241.22;2770402;84;21038;-90
2022/09/14 09:30:29;;;;;;;4.05;2.45;;;;;;;21.07;79.51;99237.63;2801284;80;20151;-87
2022/09/14 09:34:33;;;;;;;7.78;3.42;;;;;;;21.12;78.17;99239.67;2722120;86;21074;-89
2022/09/14 09:38:34;;;;;;;4.17;2.75;;;;;;;21.10;76.73;99239.06;2729143;85;21062;-94
2022/09/14 09:42:36;;;;;;;6.40;3.17;;;;;;;21.08;77.27;99238.47;2704579;86;21045;-88
2022/09/14 09:46:47;;;;;;;6.58;4.17;;;;;;;21.08;77.97;99236.57;2699694;86;21148;-88
2022/09/14 09:51:03;;;;;;;5.37;3.12;;;;;;;21.09;78.02;99232.01;2685342;85;21058;-88
2022/09/14 09:55:06;;;;;;;10.78;4.05;;;;;;;21.12;79.87;99232.91;2725563;85;21099;-88
2022/09/14 09:59:37;;;;;;;7.58;3.85;;;;;;;21.14;79.00;99232.70;2730476;85;21029;-88
2022/09/14 10:03:40;;;;;;;6.83;5.17;;;;;;;21.22;79.20;99235.95;2727999;85;21035;-87
2022/09/14 10:08:02;;;;;;;9.70;4.20;;;;;;;21.32;78.88;99234.61;2736499;84;21017;-87
2022/09/14 10:12:04;;;;;;;5.10;4.35;;;;;;;21.39;79.28;99229.44;2728417;85;21658;-90
2022/09/14 10:16:16;;;;;;;5.85;3.58;;;;;;;21.57;80.59;99226.97;2726938;85;21488;-90
2022/09/14 10:20:24;;;;;;;22.85;4.05;;;;;;;21.67;77.23;99216.50;2727083;85;21123;-87
2022/09/14 10:24:26;;;;;;;7.22;4.42;;;;;;;21.75;76.38;99217.54;2730746;85;21110;-91
2022/09/14 10:28:32;;;;;;;17.77;4.78;;;;;;;21.92;77.79;99207.46;2725410;83;21080;-90
2022/09/14 10:32:35;;;;;;;5.17;3.83;;;;;;;22.07;76.86;99203.00;2734330;85;21102;-92
2022/09/14 10:36:42;;;;;;;10.63;5.85;;;;;;;22.18;76.59;99213.07;2725821;85;21030;-90
2022/09/14 10:40:47;;;;;;;9.28;5.75;;;;;;;22.26;76.48;99205.16;2743177;85;21027;-90
2022/09/14 10:45:03;;;;;;;7.00;4.62;;;;;;;22.33;75.72;99207.78;2734316;85;21024;-91
2022/09/14 10:58:18;;;;;;;12.00;4.62;;;;;;;22.06;76.47;99199.99;2688617;86;21061;-92
2022/09/14 11:02:46;;;;;;;7.72;4.25;;;;;;;21.99;77.15;99198.72;2788418;79;73505;-62
2022/09/14 11:12:14;;;;;;;7.67;4.70;;;;;;;21.94;77.11;99195.36;2834550;82;21069;-62
2022/09/14 11:16:57;;;;;;;8.40;5.47;;;;;;;21.94;77.84;99189.11;2838679;82;21027;-61
2022/09/14 11:21:39;;;;;;;10.98;6.20;;;;;;;21.96;78.73;99187.00;2840132;83;21034;-61
2022/09/14 11:25:55;;;;;;;7.22;5.40;;;;;;;21.91;78.01;99182.80;2783690;85;20995;-62
2022/09/14 11:30:05;;;;;;;6.87;4.65;;;;;;;21.87;79.22;99180.26;2840921;83;20943;-61
2022/09/14 11:38:29;;;;;;;5.95;4.80;;;;;;;21.83;80.12;99176.66;2888830;80;21201;-62
2022/09/14 11:42:56;;;;;;;11.20;4.53;;;;;;;21.96;80.90;99173.46;2867218;82;21053;-63
2022/09/14 11:47:19;;;;;;;6.97;4.45;;;;;;;22.06;80.10;99164.80;2780879;83;21017;-62
2022/09/14 11:51:51;;;;;;;11.68;6.28;;;;;;;22.17;79.85;99171.31;2806854;85;21058;-64
2022/09/14 11:55:53;;;;;;;11.45;6.83;;;;;;;22.25;79.33;99162.87;2849222;82;21030;-61
2022/09/14 12:00:00;;;;;;;7.72;5.30;;;;;;;22.29;78.52;99152.39;2845365;83;21055;-62
2022/09/14 12:04:13;;;;;;;7.95;5.53;;;;;;;22.35;79.88;99153.66;2838729;83;21069;-62
2022/09/14 12:08:37;;;;;;;20.30;6.58;;;;;;;22.27;79.71;99156.70;2866589;82;20983;-62
2022/09/14 12:13:02;;;;;;;9.43;5.83;;;;;;;22.17;80.78;99164.55;2825575;83;21070;-62
2022/09/14 12:17:29;;;;;;;7.57;6.07;;;;;;;22.02;83.11;99167.16;2855886;83;21041;-64
2022/09/14 12:21:32;;;;;;;9.85;7.55;;;;;;;21.88;82.52;99160.25;2853686;81;21641;-61
2022/09/14 12:25:34;;;;;;;6.37;5.67;;;;;;;21.99;81.01;99147.28;2763830;85;20964;-61
2022/09/14 12:29:35;;;;;;;12.65;6.97;;;;;;;22.18;81.15;99148.59;2750088;86;21058;-62
2022/09/14 12:33:40;;;;;;;9.43;6.55;;;;;;;22.18;80.59;99133.18;2765189;85;21058;-61
2022/09/14 12:37:42;;;;;;;9.93;7.30;;;;;;;22.09;82.10;99138.61;2818572;81;21017;-63
2022/09/14 12:41:51;;;;;;;8.60;6.72;;;;;;;21.97;82.95;99148.88;2871332;80;21475;-61
2022/09/14 12:46:22;;;;;;;9.20;6.97;;;;;;;21.87;82.40;99149.94;2895053;81;21061;-61
2022/09/14 12:50:28;;;;;;;10.15;7.10;;;;;;;21.88;83.65;99135.34;2826653;83;21073;-62
2022/09/14 12:54:41;;;;;;;;;;;;;;;21.86;83.38;99131.23;2846089;83;21033;-62
2022/09/14 12:59:03;;;;;;;12.85;7.83;;;;;;;21.67;85.21;99119.89;2801635;83;20143;-62
2022/09/14 13:03:20;;;;;;;12.55;8.23;;;;;;;21.62;87.79;99125.14;2759751;84;21071;-62
2022/09/14 13:07:25;;;;;;;17.62;13.48;;;;;;;21.70;84.42;99113.22;2830741;81;21039;-63
2022/09/14 13:11:35;;;;;;;25.48;17.23;;;;;;;21.78;84.86;99104.77;2868061;83;21335;-62
2022/09/14 13:15:42;;;;;;;16.40;13.43;;;;;;;21.79;82.92;99111.83;2863758;79;20982;-64
2022/09/14 13:19:57;;;;;;;17.48;14.15;;;;;;;21.78;82.86;99102.06;2891183;81;20974;-62
2022/09/14 13:23:58;;;;;;;15.83;11.97;;;;;;;21.76;82.91;99092.54;2849650;82;21464;-62
2022/09/14 13:28:04;;;;;;;12.37;8.50;;;;;;;21.74;83.71;99090.05;2880421;82;20982;-62
2022/09/14 13:32:08;;;;;;;15.05;8.70;;;;;;;21.76;83.48;99089.83;2876577;79;21014;-65
2022/09/14 13:36:09;;;;;;;15.20;7.83;;;;;;;21.78;83.23;99084.47;2853546;83;21033;-63
2022/09/14 13:40:27;;;;;;;8.60;5.30;;;;;;;21.80;83.36;99070.72;2764800;83;21050;-63
2022/09/14 13:44:35;;;;;;;13.78;7.15;;;;;;;21.74;84.06;99077.88;2800239;83;20972;-62
2022/09/14 13:48:40;;;;;;;11.20;6.22;;;;;;;21.72;84.25;99071.05;2807850;83;21098;-62
2022/09/14 13:52:52;;;;;;;7.37;6.67;;;;;;;21.78;83.76;99054.70;2869646;82;20962;-62
2022/09/14 13:57:20;;;;;;;9.28;6.42;;;;;;;21.82;83.10;99054.56;2826269;81;20908;-63
2022/09/14 14:01:28;;;;;;;7.65;5.75;;;;;;;21.73;82.57;99053.22;2867695;81;21002;-64
2022/09/14 14:05:33;;;;;;;9.73;5.92;;;;;;;21.69;83.28;99056.91;2878916;81;20935;-63
2022/09/14 14:09:46;;;;;;;;;;;;;;;21.61;82.96;99061.77;2853855;83;20998;-62
2022/09/14 14:13:48;;;;;;;9.05;6.35;;;;;;;21.59;84.56;99046.30;2809264;82;69464;-93
2022/09/14 14:17:50;;;;;;;8.25;6.20;;;;;;;21.54;85.87;99052.41;2818504;82;21085;-95
2022/09/14 14:38:32;;;;;;;10.70;6.72;;;;;;;21.47;87.37;99044.38;2775931;82;21049;-64
2022/09/14 14:42:33;;;;;;;8.80;7.22;;;;;;;21.47;87.35;99037.62;2745834;86;21065;-65
2022/09/14 14:46:35;;;;;;;13.28;7.25;;;;;;;21.50;87.38;99039.02;2750741;84;21056;-62
2022/09/14 14:50:37;;;;;;;7.83;6.72;;;;;;;21.46;87.12;99033.27;2770290;85;21079;-61
2022/09/14 14:54:39;;;;;;;11.53;8.30;;;;;;;21.45;87.57;99032.97;2771044;84;20972;-61
2022/09/14 14:58:44;;;;;;;12.07;8.30;;;;;;;21.48;87.55;99030.31;2734460;84;21008;-62
2022/09/14 15:02:46;;;;;;;14.03;8.08;;;;;;;21.48;87.24;99031.16;2774186;83;21031;-60
2022/09/14 15:07:11;;;;;;;9.53;7.28;;;;;;;21.47;89.36;99034.91;2755374;82;20981;-68
2022/09/14 15:11:17;;;;;;;9.27;7.27;;;;;;;21.35;89.47;99035.38;2765204;84;20945;-64
2022/09/14 15:15:25;;;;;;;12.18;7.30;;;;;;;21.31;89.13;99029.59;2697812;87;21056;-64
2022/09/14 15:19:26;;;;;;;9.55;7.72;;;;;;;21.30;91.09;99029.83;2713432;87;21044;-64
2022/09/14 15:23:27;;;;;;;7.75;6.65;;;;;;;21.18;90.10;99029.23;2716715;87;21098;-64
2022/09/14 15:27:29;;;;;;;10.32;6.75;;;;;;;21.08;91.30;99022.19;2689823;88;21008;-64
2022/09/14 15:31:49;;;;;;;11.90;7.42;;;;;;;21.05;93.68;99032.11;2690190;88;21004;-64
2022/09/14 15:35:55;;;;;;;10.13;7.15;;;;;;;21.04;95.03;99018.30;2689920;88;21071;-65
2022/09/14 15:39:57;;;;;;;9.25;7.72;;;;;;;20.93;95.72;99019.84;2690641;83;21036;-64
2022/09/14 15:43:59;;;;;;;13.50;7.95;;;;;;;20.91;97.92;99025.48;2711744;87;21026;-64
2022/09/14 15:48:02;;;;;;;10.30;8.05;;;;;;;20.88;97.41;99023.23;2668981;88;21006;-65
2022/09/14 15:52:03;;;;;;;9.78;8.05;;;;;;;20.78;97.87;99022.89;2717543;87;21015;-65
2022/09/14 15:56:15;;;;;;;11.35;8.28;;;;;;;20.85;99.04;99014.23;2708652;88;20968;-65
2022/09/14 16:00:18;;;;;;;11.90;8.45;;;;;;;20.84;99.42;99011.23;2735840;86;21007;-65
2022/09/14 16:04:20;;;;;;;10.90;9.53;;;;;;;20.81;99.52;99008.95;2730706;86;21039;-65
2022/09/14 16:08:22;;;;;;;13.05;9.45;;;;;;;20.92;100.00;99016.33;2708759;88;21034;-65
2022/09/14 16:12:23;;;;;;;16.42;8.45;;;;;;;20.99;100.00;99010.86;2708921;88;21067;-64
2022/09/14 16:33:05;;;;;;;13.15;9.23;;;;;;;20.56;100.00;99011.16;2891766;80;21098;-65
2022/09/14 16:37:07;;;;;;;11.90;8.68;;;;;;;20.71;100.00;99016.20;2898639;82;21014;-65
2022/09/14 16:41:10;;;;;;;11.93;9.40;;;;;;;20.81;100.00;99012.50;2898494;82;21042;-66
2022/09/14 16:45:13;;;;;;;14.18;9.60;;;;;;;20.77;100.00;99006.38;2898599;81;21208;-66
2022/09/14 16:49:17;;;;;;;9.98;8.08;;;;;;;20.48;100.00;99011.45;2868331;82;21062;-65
2022/09/14 16:53:34;;;;;;;16.90;10.18;;;;;;;20.31;100.00;99011.17;2879157;82;21042;-67
2022/09/14 16:57:36;;;;;;;13.83;11.68;;;;;;;20.25;100.00;99000.76;2895847;82;21093;-65
2022/09/14 17:01:41;;;;;;;9.48;8.33;;;;;;;20.34;100.00;98998.07;2898461;82;21030;-64
2022/09/14 17:05:44;;;;;;;9.98;8.98;;;;;;;20.35;100.00;99002.96;2897841;82;21037;-65
2022/09/14 17:09:45;;;;;;;10.93;7.95;;;;;;;20.31;100.00;98999.87;2893330;82;21070;-63
2022/09/14 17:13:55;;;;;;;9.25;8.35;;;;;;;20.19;100.00;98995.72;2869603;82;21026;-65
2022/09/14 17:17:56;;;;;;;10.40;9.25;;;;;;;20.16;100.00;98992.62;2898101;82;20979;-64
2022/09/14 17:21:57;;;;;;;11.00;7.97;;;;;;;20.22;100.00;98998.48;2853340;82;20967;-64
2022/09/14 17:26:01;;;;;;;13.93;9.75;;;;;;;20.27;100.00;98993.27;2898299;82;21014;-70
2022/09/14 17:30:05;;;;;;;12.25;10.10;;;;;;;20.35;100.00;98994.86;2896760;82;21003;-64
2022/09/14 17:34:09;;;;;;;16.37;12.43;;;;;;;20.36;100.00;98998.67;2870546;82;21044;-66
2022/09/14 17:38:44;;;;;;;15.65;13.13;;;;;;;20.30;100.00;98991.97;2870983;82;21040;-65
2022/09/14 17:42:45;;;;;;;16.55;11.15;;;;;;;20.11;100.00;98983.83;2894492;82;21002;-64
2022/09/14 17:46:47;;;;;;;16.75;11.22;;;;;;;20.12;100.00;98987.66;2873590;82;21038;-65
2022/09/14 17:51:20;;;;;;;13.65;10.32;;;;;;;20.16;100.00;98988.57;2894748;82;20963;-66
2022/09/14 17:55:21;;;;;;;10.85;9.73;;;;;;;20.21;100.00;98988.72;2873668;82;21045;-64
2022/09/14 17:59:26;;;;;;;15.32;10.70;;;;;;;20.31;100.00;98974.22;2894291;82;20970;-64
2022/09/14 18:04:03;;;;;;;12.30;9.23;;;;;;;20.35;100.00;98973.25;2894535;82;21319;-66
2022/09/14 18:08:05;;;;;;;12.30;9.38;;;;;;;20.31;100.00;98972.86;2900477;82;20999;-64
2022/09/14 18:12:09;;;;;;;9.63;8.03;;;;;;;20.41;100.00;98956.97;2895300;82;21010;-63
2022/09/14 18:16:12;;;;;;;12.00;9.93;;;;;;;20.43;100.00;98961.31;2873731;82;21062;-66
2022/09/14 18:20:15;;;;;;;11.28;8.88;;;;;;;20.43;100.00;98964.86;2874030;82;20978;-63
2022/09/14 18:24:18;;;;;;;12.65;9.18;;;;;;;20.40;100.00;98966.66;2894819;82;20908;-64
2022/09/14 18:28:21;;;;;;;12.33;9.48;;;;;;;20.38;100.00;98964.16;2894931;82;20960;-63
2022/09/14 18:32:23;;;;;;;9.80;8.23;;;;;;;20.43;100.00;98956.75;2895162;82;20987;-63
2022/09/14 18:36:25;;;;;;;10.10;8.15;;;;;;;20.47;100.00;98963.36;2863088;82;21000;-64
2022/09/14 18:40:28;;;;;;;10.53;9.10;;;;;;;20.38;100.00;98964.16;2902066;82;20998;-65
2022/09/14 18:44:34;;;;;;;12.53;9.15;;;;;;;20.24;100.00;98966.68;2845168;82;20990;-63
2022/09/14 18:48:37;;;;;;;11.97;8.75;;;;;;;20.21;100.00;98965.78;2889398;82;21038;-63
2022/09/14 18:52:40;;;;;;;8.83;7.35;;;;;;;20.23;100.00;98964.52;2849756;83;21018;-62
2022/09/14 18:56:52;;;;;;;13.93;9.45;;;;;;;20.12;100.00;98955.27;2851089;82;21030;-63
2022/09/14 19:00:53;;;;;;;18.52;11.95;;;;;;;20.04;100.00;98947.44;2833316;82;21220;-64
2022/09/14 19:05:32;;;;;;;13.48;10.63;;;;;;;19.91;100.00;98956.48;2786531;85;21019;-63
2022/09/14 19:09:34;;;;;;;12.30;10.63;;;;;;;19.92;100.00;98954.08;2838969;83;21087;-66
2022/09/14 19:13:56;;;;;;;12.37;9.10;;;;;;;19.87;100.00;98947.69;2789511;85;20995;-62
2022/09/14 19:17:58;;;;;;;16.35;12.10;;;;;;;19.95;100.00;98942.03;2838789;83;20984;-64
2022/09/14 19:22:00;;;;;;;15.75;11.08;;;;;;;20.01;100.00;98924.13;2789685;84;20975;-65
2022/09/14 19:30:48;;;;;;;;;;;;;;;20.20;100.00;98922.28;2770062;85;21010;-66
2022/09/14 19:34:55;;;;;;;12.13;9.93;;;;;;;20.23;100.00;98924.53;2761890;84;20080;-65
2022/09/14 19:39:03;;;;;;;11.90;10.70;;;;;;;20.22;100.00;98926.42;2793746;84;21002;-68
2022/09/14 19:43:02;;;;;;;15.10;11.63;;;;;;;20.00;100.00;98928.69;2891212;82;21012;-67
2022/09/14 19:47:04;;;;;;;11.25;9.18;;;;;;;19.83;100.00;98925.70;2884298;82;21287;-64
2022/09/14 19:51:20;;;;;;;13.43;11.68;;;;;;;19.68;100.00;98922.80;2888080;82;21031;-65
2022/09/14 19:55:21;;;;;;;14.53;12.33;;;;;;;19.66;100.00;98922.73;2897410;82;20982;-64
2022/09/14 19:59:24;;;;;;;20.15;15.20;;;;;;;19.57;100.00;98917.28;2903898;82;20966;-65